Aviation Digital Data Service (ADDS)

Output produced by METARs form (1308 UTC 17 September 2019)
found at http://www.aviationweather.gov/metar/data/
 
METAR text: ZSSS 171300Z 03005MPS 9999 BKN023 26/21 Q1015 NOSIG
Conditions at: ZSSS (SHANGHAI/HONGQIA, CN) observed 1300 UTC 17 September 2019
Temperature: 26.0°C (79°F)
Dewpoint: 21.0°C (70°F) [RH = 74%]
Pressure (altimeter): 29.97 inches Hg (1015.0 mb)
Winds: from the NNE (30 degrees) at 12 MPH (10 knots; 5.1 m/s)
Visibility: 6 or more miles (10+ km)
Ceiling: 2300 feet AGL
Clouds: broken clouds at 2300 feet AGL
Weather: no significant weather observed at this time

METAR text: ZSSS 171230Z 01006MPS 9999 BKN023 26/21 Q1015 NOSIG
Conditions at: ZSSS (SHANGHAI/HONGQIA, CN) observed 1230 UTC 17 September 2019
Temperature: 26.0°C (79°F)
Dewpoint: 21.0°C (70°F) [RH = 74%]
Pressure (altimeter): 29.97 inches Hg (1015.0 mb)
Winds: from the N (10 degrees) at 14 MPH (12 knots; 6.2 m/s)
Visibility: 6 or more miles (10+ km)
Ceiling: 2300 feet AGL
Clouds: broken clouds at 2300 feet AGL
Weather: no significant weather observed at this time

METAR text: ZSSS 171200Z 01006MPS 9999 BKN023 26/21 Q1015 NOSIG
Conditions at: ZSSS (SHANGHAI/HONGQIA, CN) observed 1200 UTC 17 September 2019
Temperature: 26.0°C (79°F)
Dewpoint: 21.0°C (70°F) [RH = 74%]
Pressure (altimeter): 29.97 inches Hg (1015.0 mb)
Winds: from the N (10 degrees) at 14 MPH (12 knots; 6.2 m/s)
Visibility: 6 or more miles (10+ km)
Ceiling: 2300 feet AGL
Clouds: broken clouds at 2300 feet AGL
Weather: no significant weather observed at this time

METAR text: ZSSS 171130Z 02004MPS 350V070 9999 SCT030 26/20 Q1015 NOSIG
Conditions at: ZSSS (SHANGHAI/HONGQIA, CN) observed 1130 UTC 17 September 2019
Temperature: 26.0°C (79°F)
Dewpoint: 20.0°C (68°F) [RH = 70%]
Pressure (altimeter): 29.97 inches Hg (1015.0 mb)
Winds: from the NNE (20 degrees) at 9 MPH (8 knots; 4.1 m/s)
Visibility: 6 or more miles (10+ km)
Ceiling: at least 12,000 feet AGL
Clouds: scattered clouds at 3000 feet AGL
Weather: no significant weather observed at this time

METAR text: ZSSS 171100Z 01007MPS 9999 FEW030 26/20 Q1014 NOSIG
Conditions at: ZSSS (SHANGHAI/HONGQIA, CN) observed 1100 UTC 17 September 2019
Temperature: 26.0°C (79°F)
Dewpoint: 20.0°C (68°F) [RH = 70%]
Pressure (altimeter): 29.94 inches Hg (1014.0 mb)
Winds: from the N (10 degrees) at 16 MPH (14 knots; 7.2 m/s)
Visibility: 6 or more miles (10+ km)
Ceiling: at least 12,000 feet AGL
Clouds: few clouds at 3000 feet AGL
Weather: no significant weather observed at this time

METAR text: ZSSS 171030Z 02007MPS 9999 FEW033 27/20 Q1014 NOSIG
Conditions at: ZSSS (SHANGHAI/HONGQIA, CN) observed 1030 UTC 17 September 2019
Temperature: 27.0°C (81°F)
Dewpoint: 20.0°C (68°F) [RH = 66%]
Pressure (altimeter): 29.94 inches Hg (1014.0 mb)
Winds: from the NNE (20 degrees) at 16 MPH (14 knots; 7.2 m/s)
Visibility: 6 or more miles (10+ km)
Ceiling: at least 12,000 feet AGL
Clouds: few clouds at 3300 feet AGL
Weather: no significant weather observed at this time

METAR text: ZSSS 171000Z 04007MPS 9999 SCT033 27/19 Q1013 NOSIG
Conditions at: ZSSS (SHANGHAI/HONGQIA, CN) observed 1000 UTC 17 September 2019
Temperature: 27.0°C (81°F)
Dewpoint: 19.0°C (66°F) [RH = 62%]
Pressure (altimeter): 29.91 inches Hg (1013.0 mb)
Winds: from the NE (40 degrees) at 16 MPH (14 knots; 7.2 m/s)
Visibility: 6 or more miles (10+ km)
Ceiling: at least 12,000 feet AGL
Clouds: scattered clouds at 3300 feet AGL
Weather: no significant weather observed at this time

METAR text: ZSSS 170930Z 04006MPS 9999 BKN040 28/19 Q1013 NOSIG
Conditions at: ZSSS (SHANGHAI/HONGQIA, CN) observed 0930 UTC 17 September 2019
Temperature: 28.0°C (82°F)
Dewpoint: 19.0°C (66°F) [RH = 58%]
Pressure (altimeter): 29.91 inches Hg (1013.0 mb)
Winds: from the NE (40 degrees) at 14 MPH (12 knots; 6.2 m/s)
Visibility: 6 or more miles (10+ km)
Ceiling: 4000 feet AGL
Clouds: broken clouds at 4000 feet AGL
Weather: no significant weather observed at this time

METAR text: ZSSS 170900Z 03007MPS CAVOK 28/19 Q1013 NOSIG
Conditions at: ZSSS (SHANGHAI/HONGQIA, CN) observed 0900 UTC 17 September 2019
Temperature: 28.0°C (82°F)
Dewpoint: 19.0°C (66°F) [RH = 58%]
Pressure (altimeter): 29.91 inches Hg (1013.0 mb)
Winds: from the NNE (30 degrees) at 16 MPH (14 knots; 7.2 m/s)
Visibility: 6 or more miles (10+ km)
Ceiling: ceiling and visibility are OK
Clouds: unknown
Weather: no significant weather observed at this time

METAR text: ZSSS 170830Z 02005MPS CAVOK 28/19 Q1013 NOSIG
Conditions at: ZSSS (SHANGHAI/HONGQIA, CN) observed 0830 UTC 17 September 2019
Temperature: 28.0°C (82°F)
Dewpoint: 19.0°C (66°F) [RH = 58%]
Pressure (altimeter): 29.91 inches Hg (1013.0 mb)
Winds: from the NNE (20 degrees) at 12 MPH (10 knots; 5.1 m/s)
Visibility: 6 or more miles (10+ km)
Ceiling: ceiling and visibility are OK
Clouds: unknown
Weather: no significant weather observed at this time

METAR text: ZSSS 170800Z 03005MPS 350V060 CAVOK 29/19 Q1012 NOSIG
Conditions at: ZSSS (SHANGHAI/HONGQIA, CN) observed 0800 UTC 17 September 2019
Temperature: 29.0°C (84°F)
Dewpoint: 19.0°C (66°F) [RH = 55%]
Pressure (altimeter): 29.88 inches Hg (1012.0 mb)
Winds: from the NNE (30 degrees) at 12 MPH (10 knots; 5.1 m/s)
Visibility: 6 or more miles (10+ km)
Ceiling: ceiling and visibility are OK
Clouds: unknown
Weather: no significant weather observed at this time

METAR text: ZSSS 170730Z 02006MPS CAVOK 30/17 Q1012 NOSIG
Conditions at: ZSSS (SHANGHAI/HONGQIA, CN) observed 0730 UTC 17 September 2019
Temperature: 30.0°C (86°F)
Dewpoint: 17.0°C (63°F) [RH = 46%]
Pressure (altimeter): 29.88 inches Hg (1012.0 mb)
Winds: from the NNE (20 degrees) at 14 MPH (12 knots; 6.2 m/s)
Visibility: 6 or more miles (10+ km)
Ceiling: ceiling and visibility are OK
Clouds: unknown
Weather: no significant weather observed at this time

METAR text: ZSSS 170700Z 03006MPS 350V050 CAVOK 30/17 Q1012 NOSIG
Conditions at: ZSSS (SHANGHAI/HONGQIA, CN) observed 0700 UTC 17 September 2019
Temperature: 30.0°C (86°F)
Dewpoint: 17.0°C (63°F) [RH = 46%]
Pressure (altimeter): 29.88 inches Hg (1012.0 mb)
Winds: from the NNE (30 degrees) at 14 MPH (12 knots; 6.2 m/s)
Visibility: 6 or more miles (10+ km)
Ceiling: ceiling and visibility are OK
Clouds: unknown
Weather: no significant weather observed at this time

METAR text: ZSSS 170630Z 01006MPS 340V050 CAVOK 30/17 Q1012 NOSIG
Conditions at: ZSSS (SHANGHAI/HONGQIA, CN) observed 0630 UTC 17 September 2019
Temperature: 30.0°C (86°F)
Dewpoint: 17.0°C (63°F) [RH = 46%]
Pressure (altimeter): 29.88 inches Hg (1012.0 mb)
Winds: from the N (10 degrees) at 14 MPH (12 knots; 6.2 m/s)
Visibility: 6 or more miles (10+ km)
Ceiling: ceiling and visibility are OK
Clouds: unknown
Weather: no significant weather observed at this time

METAR text: ZSSS 170600Z 01006MPS 340V060 CAVOK 30/17 Q1012 NOSIG
Conditions at: ZSSS (SHANGHAI/HONGQIA, CN) observed 0600 UTC 17 September 2019
Temperature: 30.0°C (86°F)
Dewpoint: 17.0°C (63°F) [RH = 46%]
Pressure (altimeter): 29.88 inches Hg (1012.0 mb)
Winds: from the N (10 degrees) at 14 MPH (12 knots; 6.2 m/s)
Visibility: 6 or more miles (10+ km)
Ceiling: ceiling and visibility are OK
Clouds: unknown
Weather: no significant weather observed at this time

METAR text: ZSSS 170530Z 06004MPS 010V090 CAVOK 30/18 Q1012 NOSIG
Conditions at: ZSSS (SHANGHAI/HONGQIA, CN) observed 0530 UTC 17 September 2019
Temperature: 30.0°C (86°F)
Dewpoint: 18.0°C (64°F) [RH = 49%]
Pressure (altimeter): 29.88 inches Hg (1012.0 mb)
Winds: from the ENE (60 degrees) at 9 MPH (8 knots; 4.1 m/s)
Visibility: 6 or more miles (10+ km)
Ceiling: ceiling and visibility are OK
Clouds: unknown
Weather: no significant weather observed at this time

METAR text: ZSSS 170500Z 04005MPS CAVOK 30/18 Q1013 NOSIG
Conditions at: ZSSS (SHANGHAI/HONGQIA, CN) observed 0500 UTC 17 September 2019
Temperature: 30.0°C (86°F)
Dewpoint: 18.0°C (64°F) [RH = 49%]
Pressure (altimeter): 29.91 inches Hg (1013.0 mb)
Winds: from the NE (40 degrees) at 12 MPH (10 knots; 5.1 m/s)
Visibility: 6 or more miles (10+ km)
Ceiling: ceiling and visibility are OK
Clouds: unknown
Weather: no significant weather observed at this time

METAR text: ZSSS 170430Z 01005MPS 330V050 9999 BKN040 29/17 Q1013 NOSIG
Conditions at: ZSSS (SHANGHAI/HONGQIA, CN) observed 0430 UTC 17 September 2019
Temperature: 29.0°C (84°F)
Dewpoint: 17.0°C (63°F) [RH = 48%]
Pressure (altimeter): 29.91 inches Hg (1013.0 mb)
Winds: from the N (10 degrees) at 12 MPH (10 knots; 5.1 m/s)
Visibility: 6 or more miles (10+ km)
Ceiling: 4000 feet AGL
Clouds: broken clouds at 4000 feet AGL
Weather: no significant weather observed at this time

METAR text: ZSSS 170400Z 02005MPS 9999 BKN040 28/17 Q1014 NOSIG
Conditions at: ZSSS (SHANGHAI/HONGQIA, CN) observed 0400 UTC 17 September 2019
Temperature: 28.0°C (82°F)
Dewpoint: 17.0°C (63°F) [RH = 51%]
Pressure (altimeter): 29.94 inches Hg (1014.0 mb)
Winds: from the NNE (20 degrees) at 12 MPH (10 knots; 5.1 m/s)
Visibility: 6 or more miles (10+ km)
Ceiling: 4000 feet AGL
Clouds: broken clouds at 4000 feet AGL
Weather: no significant weather observed at this time

METAR text: ZSSS 170330Z 01005MPS 330V050 9999 BKN040 29/19 Q1014 NOSIG
Conditions at: ZSSS (SHANGHAI/HONGQIA, CN) observed 0330 UTC 17 September 2019
Temperature: 29.0°C (84°F)
Dewpoint: 19.0°C (66°F) [RH = 55%]
Pressure (altimeter): 29.94 inches Hg (1014.0 mb)
Winds: from the N (10 degrees) at 12 MPH (10 knots; 5.1 m/s)
Visibility: 6 or more miles (10+ km)
Ceiling: 4000 feet AGL
Clouds: broken clouds at 4000 feet AGL
Weather: no significant weather observed at this time

METAR text: ZSSS 170300Z 03006MPS 9999 BKN040 29/18 Q1014 NOSIG
Conditions at: ZSSS (SHANGHAI/HONGQIA, CN) observed 0300 UTC 17 September 2019
Temperature: 29.0°C (84°F)
Dewpoint: 18.0°C (64°F) [RH = 52%]
Pressure (altimeter): 29.94 inches Hg (1014.0 mb)
Winds: from the NNE (30 degrees) at 14 MPH (12 knots; 6.2 m/s)
Visibility: 6 or more miles (10+ km)
Ceiling: 4000 feet AGL
Clouds: broken clouds at 4000 feet AGL
Weather: no significant weather observed at this time

METAR text: ZSSS 170230Z 35006MPS 9999 BKN033 29/19 Q1014 NOSIG
Conditions at: ZSSS (SHANGHAI/HONGQIA, CN) observed 0230 UTC 17 September 2019
Temperature: 29.0°C (84°F)
Dewpoint: 19.0°C (66°F) [RH = 55%]
Pressure (altimeter): 29.94 inches Hg (1014.0 mb)
Winds: from the N (350 degrees) at 14 MPH (12 knots; 6.2 m/s)
Visibility: 6 or more miles (10+ km)
Ceiling: 3300 feet AGL
Clouds: broken clouds at 3300 feet AGL
Weather: no significant weather observed at this time

METAR text: ZSSS 170200Z 03006MPS 010V080 9999 SCT033 28/17 Q1014 NOSIG
Conditions at: ZSSS (SHANGHAI/HONGQIA, CN) observed 0200 UTC 17 September 2019
Temperature: 28.0°C (82°F)
Dewpoint: 17.0°C (63°F) [RH = 51%]
Pressure (altimeter): 29.94 inches Hg (1014.0 mb)
Winds: from the NNE (30 degrees) at 14 MPH (12 knots; 6.2 m/s)
Visibility: 6 or more miles (10+ km)
Ceiling: at least 12,000 feet AGL
Clouds: scattered clouds at 3300 feet AGL
Weather: no significant weather observed at this time

METAR text: ZSSS 170130Z 03005MPS 360V060 9999 SCT033 28/19 Q1014 NOSIG
Conditions at: ZSSS (SHANGHAI/HONGQIA, CN) observed 0130 UTC 17 September 2019
Temperature: 28.0°C (82°F)
Dewpoint: 19.0°C (66°F) [RH = 58%]
Pressure (altimeter): 29.94 inches Hg (1014.0 mb)
Winds: from the NNE (30 degrees) at 12 MPH (10 knots; 5.1 m/s)
Visibility: 6 or more miles (10+ km)
Ceiling: at least 12,000 feet AGL
Clouds: scattered clouds at 3300 feet AGL
Weather: no significant weather observed at this time

METAR text: ZSSS 170100Z 36005MPS 9999 SCT030 27/20 Q1014 NOSIG
Conditions at: ZSSS (SHANGHAI/HONGQIA, CN) observed 0100 UTC 17 September 2019
Temperature: 27.0°C (81°F)
Dewpoint: 20.0°C (68°F) [RH = 66%]
Pressure (altimeter): 29.94 inches Hg (1014.0 mb)
Winds: from the N (360 degrees) at 12 MPH (10 knots; 5.1 m/s)
Visibility: 6 or more miles (10+ km)
Ceiling: at least 12,000 feet AGL
Clouds: scattered clouds at 3000 feet AGL
Weather: no significant weather observed at this time

METAR text: ZSSS 170030Z 01005MPS 9999 FEW026 25/20 Q1014 NOSIG
Conditions at: ZSSS (SHANGHAI/HONGQIA, CN) observed 0030 UTC 17 September 2019
Temperature: 25.0°C (77°F)
Dewpoint: 20.0°C (68°F) [RH = 74%]
Pressure (altimeter): 29.94 inches Hg (1014.0 mb)
Winds: from the N (10 degrees) at 12 MPH (10 knots; 5.1 m/s)
Visibility: 6 or more miles (10+ km)
Ceiling: at least 12,000 feet AGL
Clouds: few clouds at 2600 feet AGL
Weather: no significant weather observed at this time

METAR text: ZSSS 170000Z 36005MPS 9999 FEW026 24/20 Q1014 NOSIG
Conditions at: ZSSS (SHANGHAI/HONGQIA, CN) observed 0000 UTC 17 September 2019
Temperature: 24.0°C (75°F)
Dewpoint: 20.0°C (68°F) [RH = 78%]
Pressure (altimeter): 29.94 inches Hg (1014.0 mb)
Winds: from the N (360 degrees) at 12 MPH (10 knots; 5.1 m/s)
Visibility: 6 or more miles (10+ km)
Ceiling: at least 12,000 feet AGL
Clouds: few clouds at 2600 feet AGL
Weather: no significant weather observed at this time

METAR text: ZSSS 162330Z 35005MPS 9999 BKN023 24/20 Q1014 NOSIG
Conditions at: ZSSS (SHANGHAI/HONGQIA, CN) observed 2330 UTC 16 September 2019
Temperature: 24.0°C (75°F)
Dewpoint: 20.0°C (68°F) [RH = 78%]
Pressure (altimeter): 29.94 inches Hg (1014.0 mb)
Winds: from the N (350 degrees) at 12 MPH (10 knots; 5.1 m/s)
Visibility: 6 or more miles (10+ km)
Ceiling: 2300 feet AGL
Clouds: broken clouds at 2300 feet AGL
Weather: no significant weather observed at this time

METAR text: ZSSS 162300Z 34004MPS 9999 BKN023 24/20 Q1014 NOSIG
Conditions at: ZSSS (SHANGHAI/HONGQIA, CN) observed 2300 UTC 16 September 2019
Temperature: 24.0°C (75°F)
Dewpoint: 20.0°C (68°F) [RH = 78%]
Pressure (altimeter): 29.94 inches Hg (1014.0 mb)
Winds: from the NNW (340 degrees) at 9 MPH (8 knots; 4.1 m/s)
Visibility: 6 or more miles (10+ km)
Ceiling: 2300 feet AGL
Clouds: broken clouds at 2300 feet AGL
Weather: no significant weather observed at this time

METAR text: ZSSS 162230Z 34004MPS 9999 FEW023 23/21 Q1013 NOSIG
Conditions at: ZSSS (SHANGHAI/HONGQIA, CN) observed 2230 UTC 16 September 2019
Temperature: 23.0°C (73°F)
Dewpoint: 21.0°C (70°F) [RH = 89%]
Pressure (altimeter): 29.91 inches Hg (1013.0 mb)
Winds: from the NNW (340 degrees) at 9 MPH (8 knots; 4.1 m/s)
Visibility: 6 or more miles (10+ km)
Ceiling: at least 12,000 feet AGL
Clouds: few clouds at 2300 feet AGL
Weather: no significant weather observed at this time

METAR text: ZSSS 162200Z 35004MPS 9999 FEW023 23/20 Q1013 NOSIG
Conditions at: ZSSS (SHANGHAI/HONGQIA, CN) observed 2200 UTC 16 September 2019
Temperature: 23.0°C (73°F)
Dewpoint: 20.0°C (68°F) [RH = 83%]
Pressure (altimeter): 29.91 inches Hg (1013.0 mb)
Winds: from the N (350 degrees) at 9 MPH (8 knots; 4.1 m/s)
Visibility: 6 or more miles (10+ km)
Ceiling: at least 12,000 feet AGL
Clouds: few clouds at 2300 feet AGL
Weather: no significant weather observed at this time

METAR text: ZSSS 162130Z 34004MPS CAVOK 23/20 Q1013 NOSIG
Conditions at: ZSSS (SHANGHAI/HONGQIA, CN) observed 2130 UTC 16 September 2019
Temperature: 23.0°C (73°F)
Dewpoint: 20.0°C (68°F) [RH = 83%]
Pressure (altimeter): 29.91 inches Hg (1013.0 mb)
Winds: from the NNW (340 degrees) at 9 MPH (8 knots; 4.1 m/s)
Visibility: 6 or more miles (10+ km)
Ceiling: ceiling and visibility are OK
Clouds: unknown
Weather: no significant weather observed at this time

METAR text: ZSSS 162100Z 34004MPS CAVOK 23/20 Q1013 NOSIG
Conditions at: ZSSS (SHANGHAI/HONGQIA, CN) observed 2100 UTC 16 September 2019
Temperature: 23.0°C (73°F)
Dewpoint: 20.0°C (68°F) [RH = 83%]
Pressure (altimeter): 29.91 inches Hg (1013.0 mb)
Winds: from the NNW (340 degrees) at 9 MPH (8 knots; 4.1 m/s)
Visibility: 6 or more miles (10+ km)
Ceiling: ceiling and visibility are OK
Clouds: unknown
Weather: no significant weather observed at this time

METAR text: ZSSS 162030Z 34003MPS CAVOK 23/20 Q1012 NOSIG
Conditions at: ZSSS (SHANGHAI/HONGQIA, CN) observed 2030 UTC 16 September 2019
Temperature: 23.0°C (73°F)
Dewpoint: 20.0°C (68°F) [RH = 83%]
Pressure (altimeter): 29.88 inches Hg (1012.0 mb)
Winds: from the NNW (340 degrees) at 7 MPH (6 knots; 3.1 m/s)
Visibility: 6 or more miles (10+ km)
Ceiling: ceiling and visibility are OK
Clouds: unknown
Weather: no significant weather observed at this time

METAR text: ZSSS 162000Z 36003MPS CAVOK 22/20 Q1012 NOSIG
Conditions at: ZSSS (SHANGHAI/HONGQIA, CN) observed 2000 UTC 16 September 2019
Temperature: 22.0°C (72°F)
Dewpoint: 20.0°C (68°F) [RH = 88%]
Pressure (altimeter): 29.88 inches Hg (1012.0 mb)
Winds: from the N (360 degrees) at 7 MPH (6 knots; 3.1 m/s)
Visibility: 6 or more miles (10+ km)
Ceiling: ceiling and visibility are OK
Clouds: unknown
Weather: no significant weather observed at this time

METAR text: ZSSS 161930Z 36003MPS CAVOK 23/20 Q1012 NOSIG
Conditions at: ZSSS (SHANGHAI/HONGQIA, CN) observed 1930 UTC 16 September 2019
Temperature: 23.0°C (73°F)
Dewpoint: 20.0°C (68°F) [RH = 83%]
Pressure (altimeter): 29.88 inches Hg (1012.0 mb)
Winds: from the N (360 degrees) at 7 MPH (6 knots; 3.1 m/s)
Visibility: 6 or more miles (10+ km)
Ceiling: ceiling and visibility are OK
Clouds: unknown
Weather: no significant weather observed at this time

METAR text: ZSSS 161900Z 36003MPS CAVOK 23/20 Q1012 NOSIG
Conditions at: ZSSS (SHANGHAI/HONGQIA, CN) observed 1900 UTC 16 September 2019
Temperature: 23.0°C (73°F)
Dewpoint: 20.0°C (68°F) [RH = 83%]
Pressure (altimeter): 29.88 inches Hg (1012.0 mb)
Winds: from the N (360 degrees) at 7 MPH (6 knots; 3.1 m/s)
Visibility: 6 or more miles (10+ km)
Ceiling: ceiling and visibility are OK
Clouds: unknown
Weather: no significant weather observed at this time

METAR text: ZSSS 161830Z 36004MPS 9999 FEW026 23/20 Q1012 NOSIG
Conditions at: ZSSS (SHANGHAI/HONGQIA, CN) observed 1830 UTC 16 September 2019
Temperature: 23.0°C (73°F)
Dewpoint: 20.0°C (68°F) [RH = 83%]
Pressure (altimeter): 29.88 inches Hg (1012.0 mb)
Winds: from the N (360 degrees) at 9 MPH (8 knots; 4.1 m/s)
Visibility: 6 or more miles (10+ km)
Ceiling: at least 12,000 feet AGL
Clouds: few clouds at 2600 feet AGL
Weather: no significant weather observed at this time

METAR text: ZSSS 161800Z 36005MPS 9999 FEW026 23/20 Q1012 NOSIG
Conditions at: ZSSS (SHANGHAI/HONGQIA, CN) observed 1800 UTC 16 September 2019
Temperature: 23.0°C (73°F)
Dewpoint: 20.0°C (68°F) [RH = 83%]
Pressure (altimeter): 29.88 inches Hg (1012.0 mb)
Winds: from the N (360 degrees) at 12 MPH (10 knots; 5.1 m/s)
Visibility: 6 or more miles (10+ km)
Ceiling: at least 12,000 feet AGL
Clouds: few clouds at 2600 feet AGL
Weather: no significant weather observed at this time

METAR text: ZSSS 161730Z 36005MPS 9999 FEW026 23/20 Q1012 NOSIG
Conditions at: ZSSS (SHANGHAI/HONGQIA, CN) observed 1730 UTC 16 September 2019
Temperature: 23.0°C (73°F)
Dewpoint: 20.0°C (68°F) [RH = 83%]
Pressure (altimeter): 29.88 inches Hg (1012.0 mb)
Winds: from the N (360 degrees) at 12 MPH (10 knots; 5.1 m/s)
Visibility: 6 or more miles (10+ km)
Ceiling: at least 12,000 feet AGL
Clouds: few clouds at 2600 feet AGL
Weather: no significant weather observed at this time

METAR text: ZSSS 161700Z 36004MPS 9999 FEW026 23/20 Q1012 NOSIG
Conditions at: ZSSS (SHANGHAI/HONGQIA, CN) observed 1700 UTC 16 September 2019
Temperature: 23.0°C (73°F)
Dewpoint: 20.0°C (68°F) [RH = 83%]
Pressure (altimeter): 29.88 inches Hg (1012.0 mb)
Winds: from the N (360 degrees) at 9 MPH (8 knots; 4.1 m/s)
Visibility: 6 or more miles (10+ km)
Ceiling: at least 12,000 feet AGL
Clouds: few clouds at 2600 feet AGL
Weather: no significant weather observed at this time

METAR text: ZSSS 161630Z 36004MPS 9999 FEW026 24/20 Q1012 NOSIG
Conditions at: ZSSS (SHANGHAI/HONGQIA, CN) observed 1630 UTC 16 September 2019
Temperature: 24.0°C (75°F)
Dewpoint: 20.0°C (68°F) [RH = 78%]
Pressure (altimeter): 29.88 inches Hg (1012.0 mb)
Winds: from the N (360 degrees) at 9 MPH (8 knots; 4.1 m/s)
Visibility: 6 or more miles (10+ km)
Ceiling: at least 12,000 feet AGL
Clouds: few clouds at 2600 feet AGL
Weather: no significant weather observed at this time

METAR text: ZSSS 161600Z 36004MPS 9999 FEW033 24/19 Q1013 NOSIG
Conditions at: ZSSS (SHANGHAI/HONGQIA, CN) observed 1600 UTC 16 September 2019
Temperature: 24.0°C (75°F)
Dewpoint: 19.0°C (66°F) [RH = 74%]
Pressure (altimeter): 29.91 inches Hg (1013.0 mb)
Winds: from the N (360 degrees) at 9 MPH (8 knots; 4.1 m/s)
Visibility: 6 or more miles (10+ km)
Ceiling: at least 12,000 feet AGL
Clouds: few clouds at 3300 feet AGL
Weather: no significant weather observed at this time

METAR text: ZSSS 161530Z 36005MPS 9999 FEW033 24/19 Q1013 NOSIG
Conditions at: ZSSS (SHANGHAI/HONGQIA, CN) observed 1530 UTC 16 September 2019
Temperature: 24.0°C (75°F)
Dewpoint: 19.0°C (66°F) [RH = 74%]
Pressure (altimeter): 29.91 inches Hg (1013.0 mb)
Winds: from the N (360 degrees) at 12 MPH (10 knots; 5.1 m/s)
Visibility: 6 or more miles (10+ km)
Ceiling: at least 12,000 feet AGL
Clouds: few clouds at 3300 feet AGL
Weather: no significant weather observed at this time

METAR text: ZSSS 161500Z 36004MPS CAVOK 24/19 Q1013 NOSIG
Conditions at: ZSSS (SHANGHAI/HONGQIA, CN) observed 1500 UTC 16 September 2019
Temperature: 24.0°C (75°F)
Dewpoint: 19.0°C (66°F) [RH = 74%]
Pressure (altimeter): 29.91 inches Hg (1013.0 mb)
Winds: from the N (360 degrees) at 9 MPH (8 knots; 4.1 m/s)
Visibility: 6 or more miles (10+ km)
Ceiling: ceiling and visibility are OK
Clouds: unknown
Weather: no significant weather observed at this time

METAR text: ZSSS 161430Z 36005MPS CAVOK 24/19 Q1013 NOSIG
Conditions at: ZSSS (SHANGHAI/HONGQIA, CN) observed 1430 UTC 16 September 2019
Temperature: 24.0°C (75°F)
Dewpoint: 19.0°C (66°F) [RH = 74%]
Pressure (altimeter): 29.91 inches Hg (1013.0 mb)
Winds: from the N (360 degrees) at 12 MPH (10 knots; 5.1 m/s)
Visibility: 6 or more miles (10+ km)
Ceiling: ceiling and visibility are OK
Clouds: unknown
Weather: no significant weather observed at this time

METAR text: ZSSS 161400Z 36005MPS CAVOK 25/19 Q1013 NOSIG
Conditions at: ZSSS (SHANGHAI/HONGQIA, CN) observed 1400 UTC 16 September 2019
Temperature: 25.0°C (77°F)
Dewpoint: 19.0°C (66°F) [RH = 69%]
Pressure (altimeter): 29.91 inches Hg (1013.0 mb)
Winds: from the N (360 degrees) at 12 MPH (10 knots; 5.1 m/s)
Visibility: 6 or more miles (10+ km)
Ceiling: ceiling and visibility are OK
Clouds: unknown
Weather: no significant weather observed at this time

METAR text: ZSSS 161330Z 01005MPS 9999 FEW040 25/19 Q1013 NOSIG
Conditions at: ZSSS (SHANGHAI/HONGQIA, CN) observed 1330 UTC 16 September 2019
Temperature: 25.0°C (77°F)
Dewpoint: 19.0°C (66°F) [RH = 69%]
Pressure (altimeter): 29.91 inches Hg (1013.0 mb)
Winds: from the N (10 degrees) at 12 MPH (10 knots; 5.1 m/s)
Visibility: 6 or more miles (10+ km)
Ceiling: at least 12,000 feet AGL
Clouds: few clouds at 4000 feet AGL
Weather: no significant weather observed at this time

METAR text: ZSSS 161300Z 01005MPS 9999 FEW040 25/19 Q1013 NOSIG
Conditions at: ZSSS (SHANGHAI/HONGQIA, CN) observed 1300 UTC 16 September 2019
Temperature: 25.0°C (77°F)
Dewpoint: 19.0°C (66°F) [RH = 69%]
Pressure (altimeter): 29.91 inches Hg (1013.0 mb)
Winds: from the N (10 degrees) at 12 MPH (10 knots; 5.1 m/s)
Visibility: 6 or more miles (10+ km)
Ceiling: at least 12,000 feet AGL
Clouds: few clouds at 4000 feet AGL
Weather: no significant weather observed at this time

METAR text: ZSSS 161230Z 01006MPS 9999 FEW040 25/18 Q1012 NOSIG
Conditions at: ZSSS (SHANGHAI/HONGQIA, CN) observed 1230 UTC 16 September 2019
Temperature: 25.0°C (77°F)
Dewpoint: 18.0°C (64°F) [RH = 65%]
Pressure (altimeter): 29.88 inches Hg (1012.0 mb)
Winds: from the N (10 degrees) at 14 MPH (12 knots; 6.2 m/s)
Visibility: 6 or more miles (10+ km)
Ceiling: at least 12,000 feet AGL
Clouds: few clouds at 4000 feet AGL
Weather: no significant weather observed at this time

METAR text: ZSSS 161200Z 01005MPS 9999 FEW040 25/18 Q1012 NOSIG
Conditions at: ZSSS (SHANGHAI/HONGQIA, CN) observed 1200 UTC 16 September 2019
Temperature: 25.0°C (77°F)
Dewpoint: 18.0°C (64°F) [RH = 65%]
Pressure (altimeter): 29.88 inches Hg (1012.0 mb)
Winds: from the N (10 degrees) at 12 MPH (10 knots; 5.1 m/s)
Visibility: 6 or more miles (10+ km)
Ceiling: at least 12,000 feet AGL
Clouds: few clouds at 4000 feet AGL
Weather: no significant weather observed at this time

METAR text: ZSSS 161130Z 01005MPS 9999 FEW040 26/17 Q1012 NOSIG
Conditions at: ZSSS (SHANGHAI/HONGQIA, CN) observed 1130 UTC 16 September 2019
Temperature: 26.0°C (79°F)
Dewpoint: 17.0°C (63°F) [RH = 58%]
Pressure (altimeter): 29.88 inches Hg (1012.0 mb)
Winds: from the N (10 degrees) at 12 MPH (10 knots; 5.1 m/s)
Visibility: 6 or more miles (10+ km)
Ceiling: at least 12,000 feet AGL
Clouds: few clouds at 4000 feet AGL
Weather: no significant weather observed at this time

METAR text: ZSSS 161100Z 01006MPS 9999 FEW040 26/17 Q1012 NOSIG
Conditions at: ZSSS (SHANGHAI/HONGQIA, CN) observed 1100 UTC 16 September 2019
Temperature: 26.0°C (79°F)
Dewpoint: 17.0°C (63°F) [RH = 58%]
Pressure (altimeter): 29.88 inches Hg (1012.0 mb)
Winds: from the N (10 degrees) at 14 MPH (12 knots; 6.2 m/s)
Visibility: 6 or more miles (10+ km)
Ceiling: at least 12,000 feet AGL
Clouds: few clouds at 4000 feet AGL
Weather: no significant weather observed at this time

METAR text: ZSSS 161030Z 01006MPS 9999 FEW040 26/17 Q1011 NOSIG
Conditions at: ZSSS (SHANGHAI/HONGQIA, CN) observed 1030 UTC 16 September 2019
Temperature: 26.0°C (79°F)
Dewpoint: 17.0°C (63°F) [RH = 58%]
Pressure (altimeter): 29.85 inches Hg (1011.0 mb)
Winds: from the N (10 degrees) at 14 MPH (12 knots; 6.2 m/s)
Visibility: 6 or more miles (10+ km)
Ceiling: at least 12,000 feet AGL
Clouds: few clouds at 4000 feet AGL
Weather: no significant weather observed at this time

METAR text: ZSSS 161000Z 01007MPS 9999 FEW040 27/16 Q1011 NOSIG
Conditions at: ZSSS (SHANGHAI/HONGQIA, CN) observed 1000 UTC 16 September 2019
Temperature: 27.0°C (81°F)
Dewpoint: 16.0°C (61°F) [RH = 51%]
Pressure (altimeter): 29.85 inches Hg (1011.0 mb)
Winds: from the N (10 degrees) at 16 MPH (14 knots; 7.2 m/s)
Visibility: 6 or more miles (10+ km)
Ceiling: at least 12,000 feet AGL
Clouds: few clouds at 4000 feet AGL
Weather: no significant weather observed at this time

METAR text: ZSSS 160930Z 02006MPS 350V050 9999 FEW040 27/17 Q1011 NOSIG
Conditions at: ZSSS (SHANGHAI/HONGQIA, CN) observed 0930 UTC 16 September 2019
Temperature: 27.0°C (81°F)
Dewpoint: 17.0°C (63°F) [RH = 54%]
Pressure (altimeter): 29.85 inches Hg (1011.0 mb)
Winds: from the NNE (20 degrees) at 14 MPH (12 knots; 6.2 m/s)
Visibility: 6 or more miles (10+ km)
Ceiling: at least 12,000 feet AGL
Clouds: few clouds at 4000 feet AGL
Weather: no significant weather observed at this time

METAR text: ZSSS 160900Z 03006MPS 9999 FEW040 28/17 Q1011 NOSIG
Conditions at: ZSSS (SHANGHAI/HONGQIA, CN) observed 0900 UTC 16 September 2019
Temperature: 28.0°C (82°F)
Dewpoint: 17.0°C (63°F) [RH = 51%]
Pressure (altimeter): 29.85 inches Hg (1011.0 mb)
Winds: from the NNE (30 degrees) at 14 MPH (12 knots; 6.2 m/s)
Visibility: 6 or more miles (10+ km)
Ceiling: at least 12,000 feet AGL
Clouds: few clouds at 4000 feet AGL
Weather: no significant weather observed at this time

METAR text: ZSSS 160830Z 36006G11MPS 9999 SCT040 29/17 Q1011 NOSIG
Conditions at: ZSSS (SHANGHAI/HONGQIA, CN) observed 0830 UTC 16 September 2019
Temperature: 29.0°C (84°F)
Dewpoint: 17.0°C (63°F) [RH = 48%]
Pressure (altimeter): 29.85 inches Hg (1011.0 mb)
Winds: from the N (360 degrees) at 14 MPH (12 knots; 6.2 m/s)
gusting to 24 MPH (21 knots; 10.8 m/s)
Visibility: 6 or more miles (10+ km)
Ceiling: at least 12,000 feet AGL
Clouds: scattered clouds at 4000 feet AGL
Weather: no significant weather observed at this time

METAR text: ZSSS 160800Z 04006MPS 9999 SCT040 29/16 Q1011 NOSIG
Conditions at: ZSSS (SHANGHAI/HONGQIA, CN) observed 0800 UTC 16 September 2019
Temperature: 29.0°C (84°F)
Dewpoint: 16.0°C (61°F) [RH = 45%]
Pressure (altimeter): 29.85 inches Hg (1011.0 mb)
Winds: from the NE (40 degrees) at 14 MPH (12 knots; 6.2 m/s)
Visibility: 6 or more miles (10+ km)
Ceiling: at least 12,000 feet AGL
Clouds: scattered clouds at 4000 feet AGL
Weather: no significant weather observed at this time

METAR text: ZSSS 160730Z 03006MPS 350V070 9999 FEW040 29/16 Q1011 NOSIG
Conditions at: ZSSS (SHANGHAI/HONGQIA, CN) observed 0730 UTC 16 September 2019
Temperature: 29.0°C (84°F)
Dewpoint: 16.0°C (61°F) [RH = 45%]
Pressure (altimeter): 29.85 inches Hg (1011.0 mb)
Winds: from the NNE (30 degrees) at 14 MPH (12 knots; 6.2 m/s)
Visibility: 6 or more miles (10+ km)
Ceiling: at least 12,000 feet AGL
Clouds: few clouds at 4000 feet AGL
Weather: no significant weather observed at this time

METAR text: ZSSS 160700Z 04005MPS 010V070 9999 FEW040 29/16 Q1011 NOSIG
Conditions at: ZSSS (SHANGHAI/HONGQIA, CN) observed 0700 UTC 16 September 2019
Temperature: 29.0°C (84°F)
Dewpoint: 16.0°C (61°F) [RH = 45%]
Pressure (altimeter): 29.85 inches Hg (1011.0 mb)
Winds: from the NE (40 degrees) at 12 MPH (10 knots; 5.1 m/s)
Visibility: 6 or more miles (10+ km)
Ceiling: at least 12,000 feet AGL
Clouds: few clouds at 4000 feet AGL
Weather: no significant weather observed at this time

METAR text: ZSSS 160630Z 03006MPS 350V070 9999 FEW040 30/16 Q1011 NOSIG
Conditions at: ZSSS (SHANGHAI/HONGQIA, CN) observed 0630 UTC 16 September 2019
Temperature: 30.0°C (86°F)
Dewpoint: 16.0°C (61°F) [RH = 43%]
Pressure (altimeter): 29.85 inches Hg (1011.0 mb)
Winds: from the NNE (30 degrees) at 14 MPH (12 knots; 6.2 m/s)
Visibility: 6 or more miles (10+ km)
Ceiling: at least 12,000 feet AGL
Clouds: few clouds at 4000 feet AGL
Weather: no significant weather observed at this time

METAR text: ZSSS 160600Z 02007MPS 9999 FEW040 30/15 Q1011 NOSIG
Conditions at: ZSSS (SHANGHAI/HONGQIA, CN) observed 0600 UTC 16 September 2019
Temperature: 30.0°C (86°F)
Dewpoint: 15.0°C (59°F) [RH = 40%]
Pressure (altimeter): 29.85 inches Hg (1011.0 mb)
Winds: from the NNE (20 degrees) at 16 MPH (14 knots; 7.2 m/s)
Visibility: 6 or more miles (10+ km)
Ceiling: at least 12,000 feet AGL
Clouds: few clouds at 4000 feet AGL
Weather: no significant weather observed at this time

METAR text: ZSSS 160530Z 02006MPS 340V040 9999 SCT040 29/16 Q1011 NOSIG
Conditions at: ZSSS (SHANGHAI/HONGQIA, CN) observed 0530 UTC 16 September 2019
Temperature: 29.0°C (84°F)
Dewpoint: 16.0°C (61°F) [RH = 45%]
Pressure (altimeter): 29.85 inches Hg (1011.0 mb)
Winds: from the NNE (20 degrees) at 14 MPH (12 knots; 6.2 m/s)
Visibility: 6 or more miles (10+ km)
Ceiling: at least 12,000 feet AGL
Clouds: scattered clouds at 4000 feet AGL
Weather: no significant weather observed at this time

METAR text: ZSSS 160500Z 01007MPS 9999 SCT040 29/16 Q1011 NOSIG
Conditions at: ZSSS (SHANGHAI/HONGQIA, CN) observed 0500 UTC 16 September 2019
Temperature: 29.0°C (84°F)
Dewpoint: 16.0°C (61°F) [RH = 45%]
Pressure (altimeter): 29.85 inches Hg (1011.0 mb)
Winds: from the N (10 degrees) at 16 MPH (14 knots; 7.2 m/s)
Visibility: 6 or more miles (10+ km)
Ceiling: at least 12,000 feet AGL
Clouds: scattered clouds at 4000 feet AGL
Weather: no significant weather observed at this time

METAR text: ZSSS 160430Z 06005MPS 9999 SCT040 30/17 Q1012 NOSIG
Conditions at: ZSSS (SHANGHAI/HONGQIA, CN) observed 0430 UTC 16 September 2019
Temperature: 30.0°C (86°F)
Dewpoint: 17.0°C (63°F) [RH = 46%]
Pressure (altimeter): 29.88 inches Hg (1012.0 mb)
Winds: from the ENE (60 degrees) at 12 MPH (10 knots; 5.1 m/s)
Visibility: 6 or more miles (10+ km)
Ceiling: at least 12,000 feet AGL
Clouds: scattered clouds at 4000 feet AGL
Weather: no significant weather observed at this time

METAR text: ZSSS 160400Z 01006MPS 350V060 9999 BKN033 29/16 Q1012 NOSIG
Conditions at: ZSSS (SHANGHAI/HONGQIA, CN) observed 0400 UTC 16 September 2019
Temperature: 29.0°C (84°F)
Dewpoint: 16.0°C (61°F) [RH = 45%]
Pressure (altimeter): 29.88 inches Hg (1012.0 mb)
Winds: from the N (10 degrees) at 14 MPH (12 knots; 6.2 m/s)
Visibility: 6 or more miles (10+ km)
Ceiling: 3300 feet AGL
Clouds: broken clouds at 3300 feet AGL
Weather: no significant weather observed at this time

METAR text: ZSSS 160330Z 03005MPS 350V070 9999 BKN033 29/17 Q1012 NOSIG
Conditions at: ZSSS (SHANGHAI/HONGQIA, CN) observed 0330 UTC 16 September 2019
Temperature: 29.0°C (84°F)
Dewpoint: 17.0°C (63°F) [RH = 48%]
Pressure (altimeter): 29.88 inches Hg (1012.0 mb)
Winds: from the NNE (30 degrees) at 12 MPH (10 knots; 5.1 m/s)
Visibility: 6 or more miles (10+ km)
Ceiling: 3300 feet AGL
Clouds: broken clouds at 3300 feet AGL
Weather: no significant weather observed at this time

METAR text: ZSSS 160300Z 02005MPS 350V060 9999 BKN033 29/18 Q1012 NOSIG
Conditions at: ZSSS (SHANGHAI/HONGQIA, CN) observed 0300 UTC 16 September 2019
Temperature: 29.0°C (84°F)
Dewpoint: 18.0°C (64°F) [RH = 52%]
Pressure (altimeter): 29.88 inches Hg (1012.0 mb)
Winds: from the NNE (20 degrees) at 12 MPH (10 knots; 5.1 m/s)
Visibility: 6 or more miles (10+ km)
Ceiling: 3300 feet AGL
Clouds: broken clouds at 3300 feet AGL
Weather: no significant weather observed at this time

METAR text: ZSSS 160230Z 02006MPS 350V060 9999 BKN033 28/17 Q1012 NOSIG
Conditions at: ZSSS (SHANGHAI/HONGQIA, CN) observed 0230 UTC 16 September 2019
Temperature: 28.0°C (82°F)
Dewpoint: 17.0°C (63°F) [RH = 51%]
Pressure (altimeter): 29.88 inches Hg (1012.0 mb)
Winds: from the NNE (20 degrees) at 14 MPH (12 knots; 6.2 m/s)
Visibility: 6 or more miles (10+ km)
Ceiling: 3300 feet AGL
Clouds: broken clouds at 3300 feet AGL
Weather: no significant weather observed at this time

METAR text: ZSSS 160200Z 04005MPS 010V090 9999 BKN033 28/17 Q1013 NOSIG
Conditions at: ZSSS (SHANGHAI/HONGQIA, CN) observed 0200 UTC 16 September 2019
Temperature: 28.0°C (82°F)
Dewpoint: 17.0°C (63°F) [RH = 51%]
Pressure (altimeter): 29.91 inches Hg (1013.0 mb)
Winds: from the NE (40 degrees) at 12 MPH (10 knots; 5.1 m/s)
Visibility: 6 or more miles (10+ km)
Ceiling: 3300 feet AGL
Clouds: broken clouds at 3300 feet AGL
Weather: no significant weather observed at this time

METAR text: ZSSS 160130Z 01006MPS 9999 BKN033 27/18 Q1013 NOSIG
Conditions at: ZSSS (SHANGHAI/HONGQIA, CN) observed 0130 UTC 16 September 2019
Temperature: 27.0°C (81°F)
Dewpoint: 18.0°C (64°F) [RH = 58%]
Pressure (altimeter): 29.91 inches Hg (1013.0 mb)
Winds: from the N (10 degrees) at 14 MPH (12 knots; 6.2 m/s)
Visibility: 6 or more miles (10+ km)
Ceiling: 3300 feet AGL
Clouds: broken clouds at 3300 feet AGL
Weather: no significant weather observed at this time

Forecast for: ZSSS (SHANGHAI/HONGQIA, CN)
Text: TAF ZSSS 170914Z 1712/1812 02004MPS 6000 BKN020 TX29/1806Z TN23/1721Z
Forecast period: 1200 UTC 17 September 2019 to 1200 UTC 18 September 2019
Forecast type: FROM: standard forecast or significant change
Winds: from the NNE (20 degrees) at 9 MPH (8 knots; 4.1 m/s)
Visibility: 4 miles (6 km)
Ceiling: 2000 feet AGL
Clouds: broken clouds at 2000 feet AGL
Weather: no significant weather forecast for this period